createdAt,value
2018-07-09T00:00:56.336Z,6.10
2018-07-09T00:03:24.541Z,6.90
2018-07-09T00:05:52.785Z,6.20
2018-07-09T00:08:21.066Z,6.20
2018-07-09T00:10:56.312Z,6.65
2018-07-09T00:13:25.187Z,5.90
2018-07-09T00:15:53.672Z,6.67
2018-07-09T00:18:21.855Z,6.13
2018-07-09T00:20:50.057Z,6.13
2018-07-09T00:23:18.242Z,6.50
2018-07-09T00:25:47.617Z,6.77
2018-07-09T00:28:16.737Z,6.70
2018-07-09T00:30:45.005Z,6.03
2018-07-09T00:33:13.236Z,7.00
2018-07-09T00:35:41.432Z,5.93
2018-07-09T00:38:09.564Z,6.27
2018-07-09T00:40:37.750Z,6.60
2018-07-09T00:43:05.915Z,6.93
2018-07-09T00:45:34.036Z,7.57
2018-07-09T00:48:02.185Z,7.60
2018-07-09T00:50:30.648Z,6.80
2018-07-09T00:52:58.783Z,6.83
2018-07-09T00:55:27.772Z,6.47
2018-07-09T00:57:55.908Z,6.80
2018-07-09T01:00:24.080Z,6.90
2018-07-09T01:02:52.256Z,5.93
2018-07-09T01:05:20.395Z,7.87
2018-07-09T01:07:48.530Z,6.93
2018-07-09T01:10:17.519Z,7.00
2018-07-09T01:12:45.665Z,6.10
2018-07-09T01:15:13.849Z,6.70
2018-07-09T01:17:41.996Z,6.23
2018-07-09T01:20:10.127Z,6.80
2018-07-09T01:22:38.251Z,6.63
2018-07-09T01:25:06.393Z,7.37
2018-07-09T01:27:34.572Z,7.70
2018-07-09T01:30:08.654Z,7.40
2018-07-09T01:32:37.552Z,6.33
2018-07-09T01:35:06.041Z,6.80
2018-07-09T01:37:34.203Z,7.70
2018-07-09T01:40:02.308Z,6.75
2018-07-09T01:42:30.453Z,8.00
2018-07-09T01:44:58.545Z,8.23
2018-07-09T01:47:26.630Z,7.50
2018-07-09T01:49:54.773Z,7.40
2018-07-09T01:52:22.890Z,6.57
2018-07-09T01:54:51.379Z,6.67
2018-07-09T01:57:19.533Z,6.93
2018-07-09T01:59:47.704Z,6.62
2018-07-09T02:02:15.819Z,7.20
2018-07-09T02:04:43.926Z,8.78
2018-07-09T02:07:12.013Z,7.08
2018-07-09T02:09:40.084Z,6.90
2018-07-09T02:12:08.229Z,7.60
2018-07-09T02:14:36.401Z,7.25
2018-07-09T02:17:04.571Z,7.13
2018-07-09T02:19:32.687Z,7.63
2018-07-09T02:22:00.824Z,7.85
2018-07-09T02:24:28.966Z,7.70
2018-07-09T02:26:57.102Z,7.08
2018-07-09T02:29:25.208Z,7.20
2018-07-09T02:31:53.465Z,8.10
2018-07-09T02:34:21.595Z,6.90
2018-07-09T02:36:49.695Z,6.20
2018-07-09T02:39:17.911Z,7.70
2018-07-09T02:41:46.045Z,7.53
2018-07-09T02:44:14.228Z,6.97
2018-07-09T02:46:42.389Z,7.50
2018-07-09T02:49:10.624Z,7.30
2018-07-09T02:51:38.641Z,6.87
2018-07-09T02:54:06.778Z,7.03
2018-07-09T02:56:34.951Z,7.30
2018-07-09T02:59:03.125Z,6.93
2018-07-09T03:01:31.230Z,8.23
2018-07-09T03:03:59.374Z,7.27
2018-07-09T03:06:27.510Z,7.43
2018-07-09T03:08:55.688Z,6.57
2018-07-09T03:11:23.839Z,6.33
2018-07-09T03:13:51.982Z,5.87
2018-07-09T03:16:20.099Z,6.22
2018-07-09T03:18:48.273Z,6.50
2018-07-09T03:21:16.440Z,7.00
2018-07-09T03:23:44.617Z,8.05
2018-07-09T03:26:12.787Z,7.10
2018-07-09T03:28:40.937Z,7.80
2018-07-09T03:31:09.125Z,6.73
2018-07-09T03:33:37.290Z,6.80
2018-07-09T03:36:05.466Z,6.25
2018-07-09T03:38:33.653Z,6.80
2018-07-09T03:41:01.785Z,7.07
2018-07-09T03:43:29.888Z,5.85
2018-07-09T03:45:57.999Z,6.75
2018-07-09T03:48:26.170Z,7.10
2018-07-09T03:50:54.265Z,6.70
2018-07-09T03:53:22.418Z,6.63
2018-07-09T03:55:50.573Z,6.50
2018-07-09T03:58:18.667Z,6.00
2018-07-09T04:00:46.772Z,5.90
2018-07-09T04:03:14.868Z,5.97
2018-07-09T04:05:42.972Z,6.45
2018-07-09T04:08:11.058Z,5.80
2018-07-09T04:10:39.170Z,6.40
2018-07-09T04:13:07.473Z,6.63
2018-07-09T04:15:35.554Z,5.90
2018-07-09T04:18:03.642Z,6.20
2018-07-09T04:20:31.748Z,5.97
2018-07-09T04:22:59.816Z,6.47
2018-07-09T04:25:27.946Z,6.03
2018-07-09T04:27:56.034Z,6.53
2018-07-09T04:30:24.137Z,5.50
2018-07-09T04:32:52.216Z,6.27
2018-07-09T04:35:20.289Z,6.57
2018-07-09T04:37:48.857Z,6.33
2018-07-09T04:40:16.891Z,5.40
2018-07-09T04:42:44.981Z,6.10
2018-07-09T04:45:13.096Z,6.07
2018-07-09T04:47:41.198Z,7.70
2018-07-09T04:50:09.259Z,6.53
2018-07-09T04:52:37.349Z,5.53
2018-07-09T04:55:05.423Z,6.13
2018-07-09T04:57:33.579Z,5.97
2018-07-09T05:00:01.689Z,6.72
2018-07-09T05:02:29.780Z,6.90
2018-07-09T05:04:57.918Z,6.63
2018-07-09T05:07:25.985Z,6.33
2018-07-09T05:09:54.089Z,7.30
2018-07-09T05:12:22.178Z,6.70
2018-07-09T05:14:50.280Z,7.23
2018-07-09T05:17:18.356Z,7.13
2018-07-09T05:19:46.521Z,6.34
2018-07-09T05:22:14.592Z,7.20
2018-07-09T05:24:42.677Z,6.73
2018-07-09T05:27:10.795Z,7.03
2018-07-09T05:49:15.918Z,7.20
2018-07-09T05:54:22.542Z,7.80
2018-07-09T05:56:50.627Z,7.50
2018-07-09T05:59:18.736Z,7.70
2018-07-09T06:01:46.842Z,7.43
2018-07-09T06:04:14.948Z,7.13
2018-07-09T06:06:43.036Z,7.90
2018-07-09T06:09:11.598Z,7.33
2018-07-09T06:11:39.750Z,7.50
2018-07-09T06:14:07.881Z,7.60
2018-07-09T06:16:35.956Z,7.67
2018-07-09T06:19:04.066Z,7.53
2018-07-09T06:21:32.171Z,7.37
2018-07-09T06:24:00.972Z,8.07
2018-07-09T06:26:29.092Z,6.77
2018-07-09T06:28:57.192Z,6.80
2018-07-09T06:31:25.323Z,8.20
2018-07-09T06:33:53.407Z,8.50
2018-07-09T06:36:21.508Z,6.87
2018-07-09T06:38:49.639Z,8.43
2018-07-09T06:41:17.730Z,7.80
2018-07-09T06:43:45.838Z,8.28
2018-07-09T06:46:13.939Z,7.58
2018-07-09T06:48:42.045Z,6.90
2018-07-09T06:51:10.125Z,8.20
2018-07-09T06:53:38.269Z,7.47
2018-07-09T06:56:06.374Z,7.43
2018-07-09T06:58:34.460Z,7.30
2018-07-09T07:01:02.669Z,6.30
2018-07-09T07:03:30.740Z,6.37
2018-07-09T07:05:58.847Z,6.73
2018-07-09T07:08:26.952Z,6.27
2018-07-09T07:10:55.360Z,6.00
2018-07-09T07:13:23.525Z,5.63
2018-07-09T07:15:51.624Z,4.80
2018-07-09T07:18:19.766Z,5.27
2018-07-09T07:20:47.894Z,5.10
2018-07-09T07:23:15.994Z,5.23
2018-07-09T07:25:44.106Z,4.30
2018-07-09T07:28:12.210Z,4.65
2018-07-09T07:30:40.368Z,4.40
2018-07-09T07:33:08.484Z,3.75
2018-07-09T07:35:36.550Z,4.08
2018-07-09T07:38:04.654Z,4.40
2018-07-09T07:40:32.767Z,3.80
2018-07-09T07:43:00.908Z,4.30
2018-07-09T07:45:28.996Z,4.23
2018-07-09T07:47:57.119Z,3.47
2018-07-09T07:50:25.316Z,4.73
2018-07-09T07:52:53.328Z,3.53
2018-07-09T07:55:21.468Z,3.60
2018-07-09T07:57:49.582Z,3.70
2018-07-09T08:00:17.666Z,3.10
2018-07-09T08:02:45.877Z,4.00
2018-07-09T08:05:14.009Z,3.73
2018-07-09T08:07:42.117Z,2.90
2018-07-09T08:10:10.207Z,4.73
2018-07-09T08:15:06.519Z,3.40
2018-07-09T08:17:34.634Z,3.50
2018-07-09T08:20:02.796Z,3.72
2018-07-09T08:22:30.885Z,3.63
2018-07-09T08:24:59.095Z,2.70
2018-07-09T08:27:27.362Z,3.13
2018-07-09T08:29:55.443Z,2.70
2018-07-09T08:32:23.607Z,3.37
2018-07-09T08:34:52.025Z,3.17
2018-07-09T08:37:20.173Z,2.87
2018-07-09T08:39:48.288Z,3.07
2018-07-09T08:42:16.408Z,2.90
2018-07-09T08:44:44.549Z,3.10
2018-07-09T08:47:13.424Z,3.40
2018-07-09T08:49:41.684Z,2.70
2018-07-09T08:52:09.803Z,2.80
2018-07-09T08:54:37.966Z,2.73
2018-07-09T08:57:06.061Z,2.47
2018-07-09T08:59:34.444Z,2.10
2018-07-09T09:02:02.579Z,2.10
2018-07-09T09:04:30.704Z,2.27
2018-07-09T09:06:58.854Z,2.33
2018-07-09T09:09:27.015Z,2.13
2018-07-09T09:11:55.121Z,2.70
2018-07-09T09:14:23.524Z,2.53
2018-07-09T09:16:51.643Z,2.77
2018-07-09T09:19:19.727Z,2.10
2018-07-09T09:21:47.792Z,2.40
2018-07-09T09:24:16.448Z,2.30
2018-07-09T09:26:44.567Z,2.90
2018-07-09T09:29:12.648Z,2.90
2018-07-09T09:31:40.837Z,2.60
2018-07-09T09:34:08.958Z,3.20
2018-07-09T09:36:37.143Z,4.10
2018-07-09T09:39:07.056Z,3.00
2018-07-09T09:41:35.176Z,3.00
2018-07-09T09:44:03.310Z,3.20
2018-07-09T09:46:31.426Z,2.30
2018-07-09T09:48:59.532Z,1.83
2018-07-09T09:51:27.656Z,1.93
2018-07-09T09:53:55.779Z,2.27
2018-07-09T09:56:24.308Z,2.00
2018-07-09T09:58:52.439Z,2.00
2018-07-09T10:01:20.552Z,2.53
2018-07-09T10:03:48.681Z,2.27
2018-07-09T10:06:16.837Z,2.00
2018-07-09T10:08:45.045Z,2.53
2018-07-09T10:11:13.177Z,2.63
2018-07-09T10:13:41.277Z,2.75
2018-07-09T10:16:09.416Z,2.62
2018-07-09T10:18:37.590Z,3.00
2018-07-09T10:21:06.204Z,2.70
2018-07-09T10:23:34.380Z,2.60
2018-07-09T10:26:02.539Z,2.30
2018-07-09T10:28:30.681Z,2.97
2018-07-09T10:30:58.896Z,2.33
2018-07-09T10:33:27.199Z,2.55
2018-07-09T10:35:55.304Z,2.67
2018-07-09T10:38:23.414Z,2.10
2018-07-09T10:40:51.575Z,2.72
2018-07-09T10:43:19.680Z,2.33
2018-07-09T10:45:47.769Z,2.30
2018-07-09T10:48:15.861Z,2.10
2018-07-09T10:50:43.989Z,2.30
2018-07-09T10:53:12.110Z,2.80
2018-07-09T10:55:40.266Z,2.67
2018-07-09T10:58:08.469Z,2.20
2018-07-09T11:00:36.688Z,2.60
2018-07-09T11:03:05.151Z,2.20
2018-07-09T11:05:33.388Z,2.87
2018-07-09T11:08:01.554Z,2.17
2018-07-09T11:10:29.730Z,2.17
2018-07-09T11:12:57.856Z,2.42
2018-07-09T11:15:25.999Z,1.95
2018-07-09T11:17:54.104Z,2.00
2018-07-09T11:20:22.219Z,2.93
2018-07-09T11:22:50.352Z,2.20
2018-07-09T11:25:18.515Z,2.35
2018-07-09T11:27:46.656Z,1.92
2018-07-09T11:30:14.807Z,1.90
2018-07-09T11:32:42.914Z,2.35
2018-07-09T11:35:11.068Z,2.37
2018-07-09T11:37:39.226Z,1.97
2018-07-09T11:40:07.414Z,2.12
2018-07-09T11:42:35.540Z,2.07
2018-07-09T11:45:03.674Z,2.03
2018-07-09T11:47:31.838Z,2.50
2018-07-09T11:49:59.987Z,1.87
2018-07-09T11:52:28.137Z,2.17
2018-07-09T11:54:56.269Z,2.10
2018-07-09T11:57:24.417Z,1.50
2018-07-09T11:59:52.585Z,2.23
2018-07-09T12:02:20.698Z,1.97
2018-07-09T12:04:48.862Z,2.10
2018-07-09T12:07:16.965Z,2.53
2018-07-09T12:09:45.088Z,1.98
2018-07-09T12:12:13.208Z,1.80
2018-07-09T12:14:41.337Z,1.77
2018-07-09T12:17:09.539Z,1.80
2018-07-09T12:19:37.663Z,2.33
2018-07-09T12:22:05.896Z,1.75
2018-07-09T12:24:34.060Z,2.30
2018-07-09T12:27:02.209Z,1.70
2018-07-09T12:29:30.410Z,1.93
2018-07-09T12:31:58.557Z,1.60
2018-07-09T12:34:26.696Z,1.87
2018-07-09T12:36:54.836Z,2.50
2018-07-09T12:39:22.984Z,1.80
2018-07-09T12:41:51.137Z,2.30
2018-07-09T12:44:19.272Z,1.90
2018-07-09T12:46:47.457Z,2.07
2018-07-09T12:49:15.573Z,2.20
2018-07-09T12:51:43.732Z,2.10
2018-07-09T12:54:11.904Z,2.00
2018-07-09T12:56:40.049Z,2.47
2018-07-09T12:59:08.224Z,1.90
2018-07-09T13:01:36.444Z,1.95
2018-07-09T13:04:04.539Z,1.60
2018-07-09T13:06:32.668Z,1.53
2018-07-09T13:09:00.814Z,2.37
2018-07-09T13:11:28.995Z,2.02
2018-07-09T13:13:57.160Z,2.20
2018-07-09T13:16:25.280Z,2.70
2018-07-09T13:18:53.431Z,1.80
2018-07-09T13:21:21.609Z,1.92
2018-07-09T13:23:49.774Z,2.20
2018-07-09T13:26:17.892Z,1.85
2018-07-09T13:28:46.012Z,2.60
2018-07-09T13:31:14.204Z,2.05
2018-07-09T13:33:42.428Z,2.13
2018-07-09T13:36:10.581Z,2.63
2018-07-09T13:38:38.680Z,1.93
2018-07-09T13:41:06.800Z,1.63
2018-07-09T13:43:34.957Z,2.53
2018-07-09T13:46:03.141Z,2.33
2018-07-09T13:48:31.289Z,2.60
2018-07-09T13:50:59.441Z,2.13
2018-07-09T13:53:27.617Z,2.53
2018-07-09T13:55:55.730Z,2.47
2018-07-09T13:58:23.848Z,2.40
2018-07-09T14:00:51.991Z,2.20
2018-07-09T14:03:20.130Z,2.27
2018-07-09T14:05:48.290Z,2.20
2018-07-09T14:08:16.462Z,2.30
2018-07-09T14:10:44.611Z,2.47
2018-07-09T14:13:12.741Z,2.13
2018-07-09T14:15:40.878Z,1.77
2018-07-09T14:18:08.976Z,1.90
2018-07-09T14:20:42.797Z,2.03
2018-07-09T14:23:12.191Z,1.63
2018-07-09T14:25:40.519Z,2.77
2018-07-09T14:28:08.595Z,3.08
2018-07-09T14:30:36.890Z,2.37
2018-07-09T14:33:05.289Z,1.60
2018-07-09T14:35:33.470Z,1.87
2018-07-09T14:38:01.564Z,2.20
2018-07-09T14:40:29.705Z,1.73
2018-07-09T14:42:57.861Z,2.30
2018-07-09T14:45:26.032Z,1.43
2018-07-09T14:47:54.219Z,2.40
2018-07-09T14:50:22.395Z,1.97
2018-07-09T14:52:50.556Z,2.03
2018-07-09T14:55:18.686Z,1.60
2018-07-09T14:57:46.809Z,2.02
2018-07-09T15:00:14.961Z,1.77
2018-07-09T15:02:43.090Z,2.00
2018-07-09T15:05:11.225Z,1.60
2018-07-09T15:07:39.376Z,1.62
2018-07-09T15:10:07.492Z,2.20
2018-07-09T15:12:35.639Z,3.15
2018-07-09T15:15:03.819Z,2.25
2018-07-09T15:17:31.921Z,3.30
2018-07-09T15:20:00.014Z,2.25
2018-07-09T15:22:28.153Z,2.20
2018-07-09T15:24:56.294Z,2.30
2018-07-09T15:27:24.414Z,2.10
2018-07-09T15:29:52.622Z,2.17
2018-07-09T15:32:25.923Z,2.00
2018-07-09T15:34:54.130Z,2.27
2018-07-09T15:37:22.301Z,2.03
2018-07-09T15:39:50.523Z,2.27
2018-07-09T15:42:18.651Z,1.60
2018-07-09T15:44:46.814Z,1.67
2018-07-09T15:47:14.944Z,1.50
2018-07-09T15:49:43.420Z,1.67
2018-07-09T15:52:11.552Z,2.22
2018-07-09T15:54:39.664Z,1.77
2018-07-09T15:57:07.886Z,1.77
2018-07-09T15:59:36.053Z,2.13
2018-07-09T16:02:04.229Z,2.40
2018-07-09T16:04:32.337Z,2.27
2018-07-09T16:07:00.419Z,2.27
2018-07-09T16:09:28.538Z,1.90
2018-07-09T16:11:56.682Z,2.33
2018-07-09T16:14:24.821Z,2.50
2018-07-09T16:16:52.972Z,2.10
2018-07-09T16:19:21.107Z,1.65
2018-07-09T16:21:49.275Z,2.03
2018-07-09T16:24:17.381Z,2.10
2018-07-09T16:26:45.554Z,1.60
2018-07-09T16:29:13.825Z,1.90
2018-07-09T16:31:41.785Z,2.20
2018-07-09T16:34:09.975Z,2.50
2018-07-09T16:36:38.137Z,2.37
2018-07-09T16:39:07.000Z,2.57
2018-07-09T16:41:35.296Z,2.65
2018-07-09T16:44:03.474Z,2.37
2018-07-09T16:46:31.578Z,2.50
2018-07-09T16:48:59.781Z,1.97
2018-07-09T16:51:27.907Z,2.60
2018-07-09T16:53:56.048Z,2.67
2018-07-09T16:56:24.159Z,2.57
2018-07-09T16:58:52.322Z,2.40
2018-07-09T17:01:20.407Z,2.40
2018-07-09T17:03:48.523Z,3.10
2018-07-09T17:06:16.712Z,2.77
2018-07-09T17:08:44.864Z,2.90
2018-07-09T17:11:13.009Z,2.27
2018-07-09T17:13:41.114Z,2.67
2018-07-09T17:16:09.268Z,2.70
2018-07-09T17:18:37.425Z,2.77
2018-07-09T17:21:05.548Z,2.37
2018-07-09T17:23:33.657Z,2.47
2018-07-09T17:26:01.791Z,2.20
2018-07-09T17:28:29.895Z,2.47
2018-07-09T17:30:58.071Z,2.60
2018-07-09T17:33:26.239Z,2.07
2018-07-09T17:35:54.447Z,3.10
2018-07-09T17:38:22.645Z,3.00
2018-07-09T17:40:50.771Z,2.13
2018-07-09T17:43:18.925Z,2.47
2018-07-09T17:45:47.175Z,2.25
2018-07-09T17:48:15.255Z,3.02
2018-07-09T17:50:43.344Z,2.60
2018-07-09T17:53:11.477Z,3.37
2018-07-09T17:55:39.651Z,4.05
2018-07-09T17:58:07.777Z,2.22
2018-07-09T18:00:35.914Z,2.50
2018-07-09T18:03:04.010Z,3.37
2018-07-09T18:05:32.213Z,2.10
2018-07-09T18:08:00.366Z,2.63
2018-07-09T18:10:28.526Z,2.60
2018-07-09T18:12:56.956Z,2.70
2018-07-09T18:15:25.106Z,3.07
2018-07-09T18:17:53.314Z,3.00
2018-07-09T18:20:21.400Z,3.25
2018-07-09T18:22:49.520Z,3.03
2018-07-09T18:25:17.613Z,3.03
2018-07-09T18:27:45.712Z,3.80
2018-07-09T18:30:13.842Z,2.70
2018-07-09T18:32:42.090Z,3.50
2018-07-09T18:35:10.212Z,3.10
2018-07-09T18:37:38.362Z,3.83
2018-07-09T18:40:06.504Z,2.70
2018-07-09T18:42:34.621Z,2.77
2018-07-09T18:45:02.822Z,2.57
2018-07-09T18:47:30.940Z,3.03
2018-07-09T18:49:59.122Z,3.20
2018-07-09T18:52:27.919Z,3.60
2018-07-09T18:54:56.021Z,3.93
2018-07-09T18:57:24.183Z,3.13
2018-07-09T18:59:52.987Z,2.80
2018-07-09T19:02:21.127Z,2.85
2018-07-09T19:04:49.215Z,2.35
2018-07-09T19:07:26.556Z,3.77
2018-07-09T19:09:54.716Z,3.73
2018-07-09T19:12:23.101Z,3.43
2018-07-09T19:14:51.870Z,3.20
2018-07-09T19:18:00.924Z,3.10
2018-07-09T19:20:40.405Z,3.20
2018-07-09T19:23:08.324Z,3.87
2018-07-09T19:25:36.493Z,3.00
2018-07-09T19:28:04.783Z,2.70
2018-07-09T19:30:32.008Z,2.67
2018-07-09T19:32:59.228Z,3.30
2018-07-09T19:35:26.451Z,2.67
2018-07-09T19:37:53.873Z,3.50
2018-07-09T19:40:20.669Z,3.00
2018-07-09T19:42:47.764Z,2.83
2018-07-09T19:45:14.873Z,2.87
2018-07-09T19:47:42.055Z,3.80
2018-07-09T19:50:09.091Z,3.70
2018-07-09T19:52:36.214Z,2.43
2018-07-09T19:55:03.329Z,3.40
2018-07-09T19:57:30.451Z,3.27
2018-07-09T19:59:57.555Z,2.92
2018-07-09T20:02:24.686Z,3.20
2018-07-09T20:04:51.801Z,2.80
2018-07-09T20:07:18.915Z,3.27
2018-07-09T20:09:51.522Z,3.63
2018-07-09T20:13:23.678Z,3.05
2018-07-09T20:15:56.015Z,2.90
2018-07-09T20:18:23.169Z,2.80
2018-07-09T20:20:50.334Z,3.80
2018-07-09T20:23:17.439Z,3.00
2018-07-09T20:25:44.534Z,3.97
2018-07-09T20:28:11.648Z,2.53
2018-07-09T20:30:38.754Z,3.12
2018-07-09T20:33:05.895Z,3.50
2018-07-09T20:35:33.026Z,3.30
2018-07-09T20:38:00.145Z,3.50
2018-07-09T20:40:27.268Z,3.43
2018-07-09T20:42:54.388Z,3.90
2018-07-09T20:45:21.503Z,2.67
2018-07-09T20:47:48.626Z,3.23
2018-07-09T20:50:15.744Z,3.17
2018-07-09T20:52:42.858Z,2.93
2018-07-09T20:55:10.000Z,4.03
2018-07-09T20:57:37.130Z,2.73
2018-07-09T21:00:04.244Z,3.10
2018-07-09T21:02:31.358Z,2.63
2018-07-09T21:04:58.477Z,3.13
2018-07-09T21:07:25.679Z,3.17
2018-07-09T21:09:52.791Z,3.37
2018-07-09T21:12:19.897Z,3.00
2018-07-09T21:14:46.995Z,3.53
2018-07-09T21:17:14.109Z,3.07
2018-07-09T21:19:41.861Z,2.72
2018-07-09T21:22:09.056Z,3.00
2018-07-09T21:24:36.151Z,3.47
2018-07-09T21:27:03.276Z,3.40
2018-07-09T21:29:30.400Z,3.57
2018-07-09T21:31:57.517Z,3.13
2018-07-09T21:34:24.637Z,3.13
2018-07-09T21:36:51.765Z,3.13
2018-07-09T21:39:18.884Z,3.10
2018-07-09T21:41:46.020Z,4.10
2018-07-09T21:44:13.146Z,3.00
2018-07-09T21:46:40.276Z,3.00
2018-07-09T21:49:07.408Z,2.70
2018-07-09T21:51:35.322Z,3.42
2018-07-09T21:54:02.454Z,3.50
2018-07-09T21:56:29.699Z,4.03
2018-07-09T21:58:56.746Z,2.72
2018-07-09T22:01:23.880Z,2.77
2018-07-09T22:03:51.013Z,4.60
2018-07-09T22:06:18.141Z,3.30
2018-07-09T22:08:45.270Z,3.30
2018-07-09T22:11:12.389Z,3.08
2018-07-09T22:13:39.514Z,3.72
2018-07-09T22:16:06.679Z,3.10
2018-07-09T22:18:33.788Z,3.77
2018-07-09T22:21:00.922Z,3.43
2018-07-09T22:23:28.029Z,3.50
2018-07-09T22:25:55.144Z,5.20
2018-07-09T22:28:22.240Z,3.60
2018-07-09T22:30:50.344Z,4.87
2018-07-09T22:33:18.467Z,3.40
2018-07-09T22:35:46.568Z,4.30
2018-07-09T22:38:14.661Z,3.37
2018-07-09T22:40:42.784Z,3.20
2018-07-09T22:43:22.285Z,3.87
2018-07-09T22:45:50.371Z,2.90
2018-07-09T22:48:18.497Z,3.23
2018-07-09T22:50:46.697Z,3.47
2018-07-09T22:53:14.828Z,3.70
2018-07-09T22:55:54.223Z,3.50
2018-07-09T22:58:22.364Z,3.63
2018-07-09T23:00:50.493Z,3.87
2018-07-09T23:03:18.654Z,4.37
2018-07-09T23:05:47.140Z,3.35
2018-07-09T23:08:15.272Z,4.00
2018-07-09T23:13:00.071Z,3.23
2018-07-09T23:15:39.630Z,3.60
2018-07-09T23:19:23.184Z,3.87
2018-07-09T23:22:01.570Z,3.80
2018-07-09T23:24:28.710Z,3.80
2018-07-09T23:26:56.204Z,3.40
2018-07-09T23:29:23.311Z,3.87
2018-07-09T23:31:50.515Z,3.57
2018-07-09T23:34:18.284Z,4.10
2018-07-09T23:36:45.416Z,3.53
2018-07-09T23:39:12.721Z,3.60
2018-07-09T23:41:39.841Z,3.03
2018-07-09T23:44:06.981Z,3.17
2018-07-09T23:46:34.116Z,3.40
2018-07-09T23:49:01.245Z,4.57
2018-07-09T23:51:28.372Z,3.63
2018-07-09T23:53:55.488Z,3.60
2018-07-09T23:57:01.974Z,4.27
2018-07-09T23:59:41.602Z,3.70
